Wetterdaten: Woche 24.04.17 - 30.04.17 (KW17)
Datum Zeit Temp. A. Temp. A. min Temp. A. max Feuchte A. Bod.Feucht 4 Luftdruck Regen Wind Richtung Sonnenschein ET Solar Taupunkt Windchill Windben Empfang
24.04.2017 00:00 3,6 C 3,6 C 3,6 C 67 % 0 cb 1024,9 hPa 0,0 l/m 2,4 km/h (1 Bft) N 0,00 h 0,025 mm 0 W/m -1,9 C 3,6 C 6,9 km/h (2 Bft) 99,93 %
24.04.2017 01:00 2,9 C 2,9 C 3,0 C 71 % 0 cb 1024,5 hPa 0,0 l/m 2,1 km/h (1 Bft) N-NO 0,00 h 0,025 mm 0 W/m -1,8 C 2,9 C 5,6 km/h (1 Bft) 100,00 %
24.04.2017 02:00 2,6 C 2,6 C 2,7 C 73 % 0 cb 1023,7 hPa 0,0 l/m 2,7 km/h (1 Bft) N-NO 0,00 h 0,025 mm 0 W/m -1,7 C 2,6 C 6,7 km/h (2 Bft) 99,93 %
24.04.2017 03:00 1,8 C 1,7 C 2,0 C 76 % 0 cb 1023,1 hPa 0,0 l/m 2,4 km/h (1 Bft) N-NO 0,00 h 0,025 mm 0 W/m -1,9 C 1,8 C 4,8 km/h (1 Bft) 100,00 %
24.04.2017 04:00 1,3 C 1,2 C 1,4 C 79 % 0 cb 1022,4 hPa 0,0 l/m 2,1 km/h (1 Bft) N-NO 0,00 h 0,025 mm 0 W/m -2,0 C 1,3 C 5,3 km/h (1 Bft) 99,05 %
24.04.2017 05:00 1,0 C 1,0 C 1,3 C 80 % 0 cb 1021,8 hPa 0,0 l/m 2,4 km/h (1 Bft) N-NO 0,00 h 0,025 mm 0 W/m -2,0 C 1,0 C 5,9 km/h (2 Bft) 100,00 %
24.04.2017 06:00 0,2 C 0,2 C 0,3 C 84 % 0 cb 1021,4 hPa 0,0 l/m 1,1 km/h (0 Bft) N-NO 0,00 h 0,000 mm 12 W/m -2,2 C 0,2 C 4,0 km/h (1 Bft) 98,90 %
24.04.2017 07:00 1,4 C 0,9 C 1,4 C 83 % 0 cb 1021,1 hPa 0,0 l/m 1,6 km/h (1 Bft) N-NO 0,17 h 0,000 mm 88 W/m -1,3 C 1,4 C 4,5 km/h (1 Bft) 71,71 %
24.04.2017 08:00 5,7 C 4,9 C 5,7 C 69 % 0 cb 1020,7 hPa 0,0 l/m 2,4 km/h (1 Bft) N 1,00 h 0,051 mm 288 W/m 0,4 C 5,7 C 7,0 km/h (2 Bft) 99,78 %
24.04.2017 09:00 9,0 C 8,5 C 9,0 C 55 % 0 cb 1020,3 hPa 0,0 l/m 1,6 km/h (1 Bft) O 1,00 h 0,127 mm 464 W/m 0,3 C 9,0 C 7,0 km/h (2 Bft) 99,85 %
24.04.2017 10:00 10,7 C 10,5 C 10,7 C 49 % 0 cb 1019,8 hPa 0,0 l/m 2,9 km/h (1 Bft) S 1,00 h 0,229 mm 631 W/m 0,3 C 10,7 C 7,5 km/h (2 Bft) 100,00 %
24.04.2017 11:00 11,7 C 11,4 C 11,7 C 44 % 0 cb 1019,3 hPa 0,0 l/m 3,5 km/h (1 Bft) O-NO 1,00 h 0,305 mm 740 W/m -0,1 C 11,7 C 9,4 km/h (2 Bft) 99,93 %
24.04.2017 12:00 13,0 C 12,8 C 13,0 C 43 % 0 cb 1018,5 hPa 0,0 l/m 4,5 km/h (1 Bft) W 1,00 h 0,381 mm 813 W/m 0,6 C 13,0 C 12,4 km/h (3 Bft) 99,71 %
24.04.2017 13:00 13,8 C 13,5 C 13,9 C 39 % 0 cb 1017,4 hPa 0,0 l/m 4,0 km/h (1 Bft) S 1,00 h 0,406 mm 822 W/m 0,1 C 13,8 C 13,4 km/h (3 Bft) 100,00 %
24.04.2017 14:00 15,3 C 15,0 C 15,4 C 36 % 0 cb 1016,3 hPa 0,0 l/m 5,9 km/h (2 Bft) S 1,00 h 0,432 mm 790 W/m 0,3 C 15,3 C 15,8 km/h (3 Bft) 100,00 %
24.04.2017 15:00 16,1 C 15,9 C 16,1 C 37 % 0 cb 1015,2 hPa 0,0 l/m 5,1 km/h (1 Bft) S-SW 1,00 h 0,406 mm 668 W/m 1,2 C 16,1 C 14,5 km/h (3 Bft) 99,93 %
24.04.2017 16:00 16,9 C 16,7 C 16,9 C 34 % 0 cb 1014,0 hPa 0,0 l/m 4,8 km/h (1 Bft) W-SW 1,00 h 0,356 mm 599 W/m 0,8 C 16,9 C 14,2 km/h (3 Bft) 98,32 %
24.04.2017 17:00 17,2 C 17,1 C 17,3 C 33 % 0 cb 1013,0 hPa 0,0 l/m 6,4 km/h (2 Bft) W-SW 1,00 h 0,330 mm 479 W/m 0,6 C 17,2 C 15,8 km/h (3 Bft) 100,00 %
24.04.2017 18:00 16,4 C 16,4 C 16,7 C 34 % 0 cb 1012,4 hPa 0,0 l/m 5,6 km/h (1 Bft) W-SW 0,67 h 0,279 mm 210 W/m 0,5 C 16,4 C 16,6 km/h (3 Bft) 100,00 %
24.04.2017 19:00 14,9 C 14,9 C 15,2 C 35 % 0 cb 1012,0 hPa 0,0 l/m 4,5 km/h (1 Bft) W-SW 0,33 h 0,152 mm 125 W/m -0,4 C 14,9 C 15,8 km/h (3 Bft) 100,00 %
24.04.2017 20:00 13,1 C 13,1 C 13,5 C 41 % 0 cb 1011,4 hPa 0,0 l/m 0,3 km/h (0 Bft) W-SW 0,00 h 0,102 mm 14 W/m 0,1 C 13,1 C 4,0 km/h (1 Bft) 100,00 %
24.04.2017 21:00 10,7 C 10,7 C 11,0 C 49 % 0 cb 1010,9 hPa 0,0 l/m 0,3 km/h (0 Bft) N 0,00 h 0,025 mm 0 W/m 0,2 C 10,7 C 2,4 km/h (1 Bft) 100,00 %
24.04.2017 22:00 8,9 C 8,9 C 9,1 C 56 % 0 cb 1010,7 hPa 0,0 l/m 0,0 km/h (0 Bft) N 0,00 h 0,025 mm 0 W/m 0,5 C 8,9 C 1,3 km/h (1 Bft) 99,78 %
24.04.2017 23:00 7,8 C 7,8 C 7,9 C 61 % 0 cb 1010,3 hPa 0,0 l/m 0,0 km/h (0 Bft) N 0,00 h 0,025 mm 0 W/m 0,6 C 7,8 C 0,8 km/h (0 Bft) 100,00 %
25.04.2017 00:00 7,5 C 7,4 C 7,7 C 62 % 0 cb 1009,9 hPa 0,0 l/m 0,8 km/h (0 Bft) W-SW 0,00 h 0,025 mm 0 W/m 0,7 C 7,5 C 3,7 km/h (1 Bft) 99,71 %
25.04.2017 01:00 5,9 C 5,9 C 6,2 C 68 % 0 cb 1009,4 hPa 0,0 l/m 0,5 km/h (0 Bft) W-SW 0,00 h 0,025 mm 0 W/m 0,4 C 5,9 C 2,1 km/h (1 Bft) 100,00 %
25.04.2017 02:00 4,8 C 4,8 C 4,9 C 73 % 0 cb 1008,9 hPa 0,0 l/m 0,0 km/h (0 Bft) N 0,00 h 0,025 mm 0 W/m 0,4 C 4,8 C 0,0 km/h (0 Bft) 100,00 %
25.04.2017 03:00 4,2 C 4,2 C 4,3 C 76 % 0 cb 1008,5 hPa 0,0 l/m 0,0 km/h (0 Bft) N 0,00 h 0,025 mm 0 W/m 0,4 C 4,2 C 0,0 km/h (0 Bft) 99,78 %
25.04.2017 04:00 3,7 C 3,7 C 3,9 C 78 % 0 cb 1008,2 hPa 0,0 l/m 0,0 km/h (0 Bft) N 0,00 h 0,025 mm 0 W/m 0,2 C 3,7 C 0,0 km/h (0 Bft) 100,00 %
25.04.2017 05:00 4,0 C 3,7 C 4,0 C 79 % 0 cb 1008,1 hPa 0,0 l/m 0,8 km/h (0 Bft) W-SW 0,00 h 0,000 mm 0 W/m 0,7 C 4,0 C 3,2 km/h (1 Bft) 99,34 %
25.04.2017 06:00 4,6 C 4,6 C 4,7 C 78 % 0 cb 1008,3 hPa 0,0 l/m 0,5 km/h (0 Bft) W-SW 0,00 h 0,000 mm 15 W/m 1,2 C 4,6 C 3,2 km/h (1 Bft) 99,93 %
25.04.2017 07:00 5,9 C 5,6 C 5,9 C 79 % 0 cb 1008,3 hPa 0,0 l/m 4,0 km/h (1 Bft) W 0,00 h 0,000 mm 82 W/m 2,4 C 5,5 C 11,0 km/h (2 Bft) 99,93 %
25.04.2017 08:00 6,8 C 6,7 C 6,8 C 81 % 0 cb 1008,6 hPa 0,0 l/m 4,3 km/h (1 Bft) W 0,00 h 0,051 mm 76 W/m 3,7 C 6,4 C 12,1 km/h (2 Bft) 100,00 %
25.04.2017 09:00 6,7 C 6,7 C 6,8 C 82 % 0 cb 1009,0 hPa 0,0 l/m 5,9 km/h (2 Bft) W 0,00 h 0,025 mm 53 W/m 3,8 C 5,7 C 16,6 km/h (3 Bft) 99,93 %
25.04.2017 10:00 5,5 C 5,5 C 5,7 C 85 % 0 cb 1009,8 hPa 0,0 l/m 6,7 km/h (2 Bft) N-NW 0,17 h 0,025 mm 105 W/m 3,1 C 4,1 C 16,6 km/h (3 Bft) 99,93 %
25.04.2017 11:00 5,5 C 5,4 C 5,5 C 79 % 0 cb 1010,3 hPa 0,0 l/m 4,8 km/h (1 Bft) NW 0,17 h 0,051 mm 130 W/m 2,1 C 4,7 C 13,7 km/h (3 Bft) 99,78 %
25.04.2017 12:00 6,3 C 6,0 C 6,3 C 69 % 0 cb 1010,5 hPa 0,0 l/m 4,5 km/h (1 Bft) W 1,00 h 0,051 mm 267 W/m 1,0 C 5,8 C 12,4 km/h (3 Bft) 99,78 %
25.04.2017 13:00 7,2 C 7,2 C 7,3 C 61 % 0 cb 1010,8 hPa 0,0 l/m 5,6 km/h (1 Bft) W 1,00 h 0,127 mm 269 W/m 0,2 C 6,4 C 14,8 km/h (3 Bft) 99,93 %
25.04.2017 14:00 7,7 C 7,6 C 7,7 C 55 % 0 cb 1010,9 hPa 0,0 l/m 6,7 km/h (2 Bft) W 1,00 h 0,127 mm 312 W/m -0,8 C 6,7 C 17,7 km/h (3 Bft) 99,85 %
25.04.2017 15:00 8,8 C 8,6 C 8,8 C 45 % 0 cb 1010,6 hPa 0,0 l/m 5,9 km/h (2 Bft) W 1,00 h 0,152 mm 417 W/m -2,4 C 8,1 C 16,4 km/h (3 Bft) 99,78 %
25.04.2017 16:00 9,3 C 9,2 C 9,4 C 45 % 0 cb 1010,2 hPa 0,0 l/m 4,3 km/h (1 Bft) N-NO 1,00 h 0,203 mm 466 W/m -1,9 C 9,1 C 14,2 km/h (3 Bft) 99,78 %
25.04.2017 17:00 9,3 C 9,3 C 9,4 C 42 % 0 cb 1010,2 hPa 0,0 l/m 5,1 km/h (1 Bft) N-NW 1,00 h 0,229 mm 286 W/m -3,1 C 8,9 C 14,0 km/h (3 Bft) 99,93 %
25.04.2017 18:00 8,9 C 8,9 C 9,1 C 43 % 0 cb 1010,1 hPa 0,0 l/m 4,8 km/h (1 Bft) N-NW 0,50 h 0,152 mm 164 W/m -3,1 C 8,6 C 12,9 km/h (3 Bft) 100,00 %
25.04.2017 19:00 8,2 C 8,2 C 8,3 C 45 % 0 cb 1010,1 hPa 0,0 l/m 3,2 km/h (1 Bft) N-NW 0,00 h 0,102 mm 57 W/m -3,1 C 8,1 C 9,4 km/h (2 Bft) 100,00 %
25.04.2017 20:00 7,5 C 7,5 C 7,6 C 47 % 0 cb 1010,2 hPa 0,0 l/m 1,6 km/h (1 Bft) N-NW 0,00 h 0,051 mm 14 W/m -3,0 C 7,5 C 4,5 km/h (1 Bft) 100,00 %
25.04.2017 21:00 6,7 C 6,7 C 6,9 C 54 % 0 cb 1010,7 hPa 0,0 l/m 5,6 km/h (1 Bft) N-NW 0,00 h 0,025 mm 0 W/m -2,0 C 5,9 C 15,0 km/h (3 Bft) 100,00 %
25.04.2017 22:00 5,9 C 5,9 C 6,0 C 60 % 0 cb 1010,9 hPa 0,0 l/m 5,1 km/h (1 Bft) N 0,00 h 0,051 mm 0 W/m -1,1 C 5,1 C 13,2 km/h (3 Bft) 99,71 %
25.04.2017 23:00 5,5 C 5,5 C 5,6 C 60 % 0 cb 1010,8 hPa 0,0 l/m 4,5 km/h (1 Bft) N-NO 0,00 h 0,025 mm 0 W/m -1,7 C 4,9 C 11,6 km/h (2 Bft) 99,93 %
26.04.2017 00:00 5,2 C 5,2 C 5,2 C 61 % 0 cb 1010,9 hPa 0,0 l/m 6,1 km/h (2 Bft) N-NO 0,00 h 0,025 mm 0 W/m -1,8 C 3,9 C 16,1 km/h (3 Bft) 100,00 %
26.04.2017 01:00 4,8 C 4,8 C 4,9 C 64 % 0 cb 1011,3 hPa 0,0 l/m 3,2 km/h (1 Bft) N-NO 0,00 h 0,025 mm 0 W/m -1,4 C 4,7 C 9,4 km/h (2 Bft) 100,00 %
26.04.2017 02:00 4,4 C 4,4 C 4,5 C 67 % 0 cb 1011,4 hPa 0,0 l/m 2,1 km/h (1 Bft) N-NO 0,00 h 0,025 mm 0 W/m -1,1 C 4,4 C 7,5 km/h (2 Bft) 100,00 %
26.04.2017 03:00 4,1 C 4,1 C 4,2 C 70 % 0 cb 1011,5 hPa 0,0 l/m 1,9 km/h (1 Bft) N-NO 0,00 h 0,025 mm 0 W/m -0,8 C 4,1 C 6,1 km/h (2 Bft) 99,27 %
26.04.2017 04:00 3,7 C 3,7 C 3,8 C 72 % 0 cb 1011,4 hPa 0,0 l/m 2,1 km/h (1 Bft) N-NO 0,00 h 0,025 mm 0 W/m -0,8 C 3,7 C 7,5 km/h (2 Bft) 99,64 %
26.04.2017 05:00 3,3 C 3,2 C 3,3 C 74 % 0 cb 1011,3 hPa 0,0 l/m 2,7 km/h (1 Bft) N 0,00 h 0,025 mm 0 W/m -1,0 C 3,3 C 7,8 km/h (2 Bft) 99,78 %
26.04.2017 06:00 3,0 C 3,0 C 3,1 C 73 % 0 cb 1011,5 hPa 0,0 l/m 3,5 km/h (1 Bft) N-NO 0,00 h 0,025 mm 13 W/m -1,3 C 2,8 C 8,9 km/h (2 Bft) 93,86 %
26.04.2017 07:00 3,1 C 3,0 C 3,1 C 74 % 0 cb 1012,0 hPa 0,0 l/m 4,5 km/h (1 Bft) N-NO 0,00 h 0,025 mm 71 W/m -1,1 C 2,2 C 10,7 km/h (2 Bft) 92,18 %
26.04.2017 08:00 4,0 C 3,7 C 4,0 C 72 % 0 cb 1012,3 hPa 0,0 l/m 5,1 km/h (1 Bft) N-NO 0,83 h 0,025 mm 216 W/m -0,6 C 2,9 C 13,2 km/h (3 Bft) 99,93 %
26.04.2017 09:00 5,5 C 5,2 C 5,5 C 65 % 0 cb 1012,4 hPa 0,0 l/m 5,1 km/h (1 Bft) N-NO 1,00 h 0,076 mm 398 W/m -0,7 C 4,6 C 12,6 km/h (3 Bft) 97,95 %
26.04.2017 10:00 7,7 C 7,4 C 7,7 C 54 % 0 cb 1012,4 hPa 0,0 l/m 4,8 km/h (1 Bft) O-NO 1,00 h 0,178 mm 650 W/m -0,9 C 7,2 C 13,7 km/h (3 Bft) 100,00 %
26.04.2017 11:00 8,4 C 8,3 C 8,6 C 50 % 0 cb 1012,4 hPa 0,0 l/m 3,5 km/h (1 Bft) N-NO 1,00 h 0,279 mm 446 W/m -1,5 C 8,3 C 11,3 km/h (2 Bft) 100,00 %
26.04.2017 12:00 8,1 C 8,0 C 8,2 C 50 % 0 cb 1012,7 hPa 0,0 l/m 3,7 km/h (1 Bft) N-NW 1,00 h 0,178 mm 360 W/m -1,8 C 7,9 C 9,7 km/h (2 Bft) 99,05 %
26.04.2017 13:00 7,9 C 7,8 C 8,1 C 50 % 0 cb 1012,8 hPa 0,0 l/m 4,0 km/h (1 Bft) N-NW 0,83 h 0,152 mm 204 W/m -1,8 C 7,6 C 11,3 km/h (2 Bft) 99,93 %
26.04.2017 14:00 8,8 C 8,6 C 8,8 C 49 % 0 cb 1012,8 hPa 0,0 l/m 3,7 km/h (1 Bft) O-SO 1,00 h 0,127 mm 420 W/m -1,5 C 8,6 C 10,2 km/h (2 Bft) 100,00 %
26.04.2017 15:00 9,2 C 9,2 C 9,3 C 45 % 0 cb 1012,9 hPa 0,0 l/m 3,2 km/h (1 Bft) SO 1,00 h 0,178 mm 291 W/m -2,0 C 9,2 C 9,7 km/h (2 Bft) 100,00 %
26.04.2017 16:00 8,8 C 8,8 C 8,9 C 48 % 0 cb 1013,1 hPa 0,0 l/m 4,3 km/h (1 Bft) S 1,00 h 0,127 mm 211 W/m -1,5 C 8,5 C 13,2 km/h (3 Bft) 100,00 %
26.04.2017 17:00 8,8 C 8,7 C 8,8 C 46 % 0 cb 1013,1 hPa 0,0 l/m 2,4 km/h (1 Bft) N-NO 1,00 h 0,127 mm 192 W/m -2,2 C 8,8 C 9,1 km/h (2 Bft) 99,93 %
26.04.2017 18:00 8,2 C 8,2 C 8,4 C 47 % 0 cb 1013,2 hPa 0,0 l/m 3,2 km/h (1 Bft) W-NW 0,33 h 0,102 mm 131 W/m -2,5 C 8,2 C 9,4 km/h (2 Bft) 100,00 %
26.04.2017 19:00 7,8 C 7,8 C 7,9 C 46 % 0 cb 1013,4 hPa 0,0 l/m 2,1 km/h (1 Bft) NO 0,00 h 0,076 mm 59 W/m -3,0 C 7,7 C 7,0 km/h (2 Bft) 99,85 %
26.04.2017 20:00 7,2 C 7,2 C 7,3 C 50 % 0 cb 1013,7 hPa 0,0 l/m 0,5 km/h (0 Bft) N 0,00 h 0,051 mm 19 W/m -2,7 C 7,2 C 4,0 km/h (1 Bft) 99,85 %
26.04.2017 21:00 6,6 C 6,6 C 6,7 C 53 % 0 cb 1014,5 hPa 0,0 l/m 2,7 km/h (1 Bft) N-NW 0,00 h 0,025 mm 0 W/m -2,2 C 6,6 C 8,3 km/h (2 Bft) 99,93 %
26.04.2017 22:00 5,8 C 5,8 C 5,9 C 62 % 0 cb 1015,1 hPa 0,0 l/m 1,9 km/h (1 Bft) N-NO 0,00 h 0,025 mm 0 W/m -0,9 C 5,8 C 5,1 km/h (1 Bft) 99,93 %
26.04.2017 23:00 5,6 C 5,6 C 5,6 C 64 % 0 cb 1015,2 hPa 0,0 l/m 1,3 km/h (1 Bft) N-NO 0,00 h 0,025 mm 0 W/m -0,7 C 5,5 C 5,3 km/h (1 Bft) 99,71 %
27.04.2017 00:00 5,2 C 5,2 C 5,3 C 66 % 0 cb 1015,3 hPa 0,0 l/m 0,0 km/h (0 Bft) N 0,00 h 0,025 mm 0 W/m -0,8 C 5,2 C 0,8 km/h (0 Bft) 100,00 %
27.04.2017 01:00 4,7 C 4,7 C 4,8 C 68 % 0 cb 1015,4 hPa 0,0 l/m 0,5 km/h (0 Bft) N-NW 0,00 h 0,025 mm 0 W/m -0,7 C 4,7 C 3,7 km/h (1 Bft) 99,85 %
27.04.2017 02:00 4,5 C 4,5 C 4,6 C 69 % 0 cb 1015,2 hPa 0,0 l/m 1,9 km/h (1 Bft) NW 0,00 h 0,025 mm 0 W/m -0,7 C 4,5 C 5,1 km/h (1 Bft) 99,64 %
27.04.2017 03:00 3,4 C 3,4 C 3,6 C 74 % 0 cb 1015,3 hPa 0,0 l/m 0,8 km/h (0 Bft) NW 0,00 h 0,025 mm 0 W/m -0,8 C 3,4 C 3,2 km/h (1 Bft) 99,78 %
27.04.2017 04:00 2,8 C 2,8 C 2,9 C 77 % 0 cb 1015,4 hPa 0,0 l/m 0,5 km/h (0 Bft) NW 0,00 h 0,025 mm 0 W/m -0,9 C 2,8 C 1,6 km/h (1 Bft) 100,00 %
27.04.2017 05:00 2,4 C 2,4 C 2,5 C 79 % 0 cb 1015,6 hPa 0,0 l/m 0,0 km/h (0 Bft) N 0,00 h 0,000 mm 0 W/m -0,9 C 2,4 C 0,0 km/h (0 Bft) 99,85 %
27.04.2017 06:00 1,7 C 1,7 C 1,8 C 81 % 0 cb 1016,0 hPa 0,0 l/m 0,0 km/h (0 Bft) N 0,00 h 0,000 mm 18 W/m -1,2 C 1,7 C 0,0 km/h (0 Bft) 100,00 %
27.04.2017 07:00 1,8 C 1,6 C 1,8 C 83 % 0 cb 1016,4 hPa 0,0 l/m 0,5 km/h (0 Bft) N-NO 0,00 h 0,000 mm 83 W/m -0,8 C 1,8 C 2,4 km/h (1 Bft) 99,85 %
27.04.2017 08:00 4,4 C 4,0 C 4,4 C 76 % 0 cb 1016,6 hPa 0,0 l/m 4,0 km/h (1 Bft) N-NO 1,00 h 0,025 mm 260 W/m 0,5 C 3,9 C 12,3 km/h (3 Bft) 99,71 %
27.04.2017 09:00 6,6 C 6,3 C 6,6 C 67 % 0 cb 1016,7 hPa 0,0 l/m 5,1 km/h (1 Bft) N 1,00 h 0,102 mm 436 W/m 0,9 C 5,9 C 14,8 km/h (3 Bft) 99,49 %
27.04.2017 10:00 8,7 C 8,3 C 8,8 C 56 % 0 cb 1016,7 hPa 0,0 l/m 4,5 km/h (1 Bft) N 1,00 h 0,203 mm 631 W/m 0,4 C 8,4 C 13,2 km/h (3 Bft) 99,78 %
27.04.2017 11:00 6,8 C 6,7 C 7,3 C 64 % 0 cb 1017,3 hPa 0,0 l/m 3,5 km/h (1 Bft) N-NO 0,50 h 0,229 mm 193 W/m 0,4 C 6,6 C 9,6 km/h (2 Bft) 99,34 %
27.04.2017 12:00 7,5 C 7,3 C 7,6 C 60 % 0 cb 1016,9 hPa 0,0 l/m 3,2 km/h (1 Bft) SW 1,00 h 0,102 mm 346 W/m 0,3 C 7,3 C 9,4 km/h (2 Bft) 99,78 %
27.04.2017 13:00 8,0 C 7,7 C 8,2 C 62 % 0 cb 1016,4 hPa 0,0 l/m 2,9 km/h (1 Bft) O-NO 1,00 h 0,152 mm 536 W/m 1,1 C 7,9 C 8,3 km/h (2 Bft) 97,59 %
27.04.2017 14:00 8,5 C 8,4 C 8,7 C 57 % 0 cb 1016,4 hPa 0,2 l/m 2,7 km/h (1 Bft) O-NO 1,00 h 0,178 mm 189 W/m 0,4 C 8,4 C 10,2 km/h (2 Bft) 100,00 %
27.04.2017 15:00 8,3 C 8,0 C 8,3 C 57 % 0 cb 1016,3 hPa 0,0 l/m 4,3 km/h (1 Bft) O-NO 1,00 h 0,102 mm 473 W/m 0,3 C 8,0 C 12,3 km/h (3 Bft) 100,00 %
27.04.2017 16:00 9,1 C 8,9 C 9,3 C 52 % 0 cb 1016,1 hPa 0,0 l/m 3,5 km/h (1 Bft) NO 0,83 h 0,178 mm 358 W/m -0,3 C 9,0 C 10,2 km/h (2 Bft) 99,56 %
27.04.2017 17:00 10,0 C 9,8 C 10,3 C 46 % 0 cb 1015,6 hPa 0,0 l/m 3,5 km/h (1 Bft) O-NO 1,00 h 0,178 mm 360 W/m -1,0 C 10,0 C 10,2 km/h (2 Bft) 100,00 %
27.04.2017 18:00 9,4 C 9,3 C 9,4 C 50 % 0 cb 1015,6 hPa 0,0 l/m 2,4 km/h (1 Bft) W-SW 0,83 h 0,127 mm 174 W/m -0,6 C 9,4 C 6,1 km/h (2 Bft) 99,93 %
27.04.2017 19:00 7,9 C 7,9 C 8,3 C 59 % 0 cb 1015,8 hPa 0,0 l/m 4,8 km/h (1 Bft) NO 0,00 h 0,076 mm 39 W/m 0,3 C 7,1 C 13,9 km/h (3 Bft) 99,42 %
27.04.2017 20:00 5,9 C 5,9 C 6,1 C 67 % 0 cb 1015,9 hPa 0,0 l/m 3,5 km/h (1 Bft) N-NO 0,00 h 0,051 mm 26 W/m 0,2 C 5,6 C 9,9 km/h (2 Bft) 96,27 %
27.04.2017 21:00 4,7 C 4,7 C 5,0 C 70 % 0 cb 1016,2 hPa 0,0 l/m 1,9 km/h (1 Bft) N-NO 0,00 h 0,025 mm 0 W/m -0,3 C 4,7 C 5,3 km/h (1 Bft) 98,25 %
27.04.2017 22:00 3,4 C 3,4 C 3,5 C 76 % 0 cb 1016,4 hPa 0,0 l/m 1,6 km/h (1 Bft) N-NO 0,00 h 0,025 mm 0 W/m -0,5 C 3,4 C 3,5 km/h (1 Bft) 100,00 %
27.04.2017 23:00 3,4 C 3,4 C 3,5 C 76 % 0 cb 1016,4 hPa 0,0 l/m 3,7 km/h (1 Bft) N-NO 0,00 h 0,025 mm 0 W/m -0,3 C 2,7 C 8,6 km/h (2 Bft) 99,85 %
28.04.2017 00:00 3,2 C 3,1 C 3,3 C 73 % 0 cb 1016,2 hPa 0,0 l/m 2,9 km/h (1 Bft) N 0,00 h 0,025 mm 0 W/m -1,3 C 3,2 C 8,8 km/h (2 Bft) 100,00 %
28.04.2017 01:00 3,1 C 3,1 C 3,2 C 70 % 0 cb 1016,1 hPa 0,0 l/m 4,0 km/h (1 Bft) N-NW 0,00 h 0,025 mm 0 W/m -1,8 C 2,6 C 10,5 km/h (2 Bft) 99,85 %
28.04.2017 02:00 2,6 C 2,6 C 2,8 C 73 % 0 cb 1015,8 hPa 0,0 l/m 4,3 km/h (1 Bft) N 0,00 h 0,025 mm 0 W/m -1,7 C 1,9 C 10,2 km/h (2 Bft) 99,78 %
28.04.2017 03:00 2,4 C 2,3 C 2,4 C 76 % 0 cb 1015,6 hPa 0,0 l/m 3,2 km/h (1 Bft) N 0,00 h 0,025 mm 0 W/m -1,5 C 2,0 C 9,4 km/h (2 Bft) 100,00 %
28.04.2017 04:00 1,9 C 1,9 C 2,0 C 77 % 0 cb 1015,5 hPa 0,0 l/m 2,9 km/h (1 Bft) N 0,00 h 0,025 mm 0 W/m -1,7 C 1,5 C 8,0 km/h (2 Bft) 98,61 %
28.04.2017 05:00 1,6 C 1,6 C 1,8 C 77 % 0 cb 1015,2 hPa 0,0 l/m 2,7 km/h (1 Bft) N-NO 0,00 h 0,025 mm 0 W/m -1,9 C 1,6 C 7,5 km/h (2 Bft) 100,00 %
28.04.2017 06:00 -0,3 C -0,3 C -0,1 C 83 % 0 cb 1015,6 hPa 0,0 l/m 0,0 km/h (0 Bft) N 0,00 h 0,025 mm 12 W/m -2,8 C -0,3 C 0,0 km/h (0 Bft) 99,49 %
28.04.2017 07:00 -0,1 C -0,5 C -0,1 C 87 % 0 cb 1016,2 hPa 0,0 l/m 0,0 km/h (0 Bft) N 0,17 h 0,000 mm 95 W/m -2,1 C -0,1 C 1,1 km/h (0 Bft) 100,00 %
28.04.2017 08:00 4,3 C 3,4 C 4,3 C 75 % 0 cb 1016,1 hPa 0,0 l/m 1,3 km/h (1 Bft) W-NW 1,00 h 0,025 mm 289 W/m 0,2 C 4,3 C 4,3 km/h (1 Bft) 100,00 %
28.04.2017 09:00 7,7 C 7,3 C 7,7 C 63 % 0 cb 1016,1 hPa 0,0 l/m 2,7 km/h (1 Bft) N 1,00 h 0,127 mm 460 W/m 1,1 C 7,7 C 7,8 km/h (2 Bft) 99,78 %
28.04.2017 10:00 8,6 C 8,5 C 8,8 C 56 % 0 cb 1016,1 hPa 0,0 l/m 4,0 km/h (1 Bft) W 1,00 h 0,203 mm 533 W/m 0,2 C 8,4 C 14,8 km/h (3 Bft) 100,00 %
28.04.2017 11:00 8,8 C 8,6 C 8,9 C 50 % 0 cb 1016,0 hPa 0,0 l/m 5,9 km/h (2 Bft) W 1,00 h 0,203 mm 764 W/m -1,0 C 8,2 C 15,3 km/h (3 Bft) 100,00 %
28.04.2017 12:00 9,5 C 9,2 C 9,7 C 47 % 0 cb 1016,0 hPa 0,0 l/m 6,7 km/h (2 Bft) W-NW 1,00 h 0,229 mm 691 W/m -1,2 C 8,7 C 17,2 km/h (3 Bft) 99,71 %
28.04.2017 13:00 10,1 C 9,8 C 10,2 C 52 % 0 cb 1015,9 hPa 0,0 l/m 7,8 km/h (2 Bft) W 1,00 h 0,229 mm 640 W/m 0,6 C 9,4 C 19,6 km/h (3 Bft) 100,00 %
28.04.2017 14:00 9,3 C 9,3 C 9,7 C 53 % 0 cb 1016,1 hPa 0,0 l/m 8,0 km/h (2 Bft) W 0,83 h 0,279 mm 216 W/m 0,2 C 8,4 C 18,8 km/h (3 Bft) 99,93 %
28.04.2017 15:00 9,3 C 9,2 C 9,3 C 59 % 0 cb 1016,6 hPa 0,0 l/m 6,9 km/h (2 Bft) W 1,00 h 0,127 mm 279 W/m 1,6 C 8,5 C 18,5 km/h (3 Bft) 100,00 %
28.04.2017 16:00 10,7 C 10,3 C 10,8 C 57 % 0 cb 1016,4 hPa 0,0 l/m 5,9 km/h (2 Bft) W-SW 1,00 h 0,152 mm 609 W/m 2,4 C 10,6 C 16,4 km/h (3 Bft) 99,85 %
28.04.2017 17:00 9,5 C 9,5 C 9,8 C 61 % 0 cb 1016,7 hPa 0,0 l/m 6,9 km/h (2 Bft) W 0,33 h 0,203 mm 115 W/m 2,2 C 8,8 C 17,7 km/h (3 Bft) 99,78 %
28.04.2017 18:00 8,4 C 8,2 C 8,5 C 69 % 0 cb 1017,1 hPa 0,0 l/m 5,9 km/h (2 Bft) W 0,33 h 0,076 mm 134 W/m 3,1 C 7,7 C 16,4 km/h (3 Bft) 100,00 %
28.04.2017 19:00 8,3 C 8,3 C 8,5 C 71 % 0 cb 1017,1 hPa 0,2 l/m 3,8 km/h (1 Bft) SW 0,00 h 0,076 mm 60 W/m 3,3 C 7,9 C 13,9 km/h (3 Bft) 99,93 %
28.04.2017 20:00 6,6 C 6,6 C 6,8 C 85 % 0 cb 1017,7 hPa 0,0 l/m 0,8 km/h (0 Bft) W-NW 0,00 h 0,025 mm 20 W/m 4,2 C 6,6 C 4,8 km/h (1 Bft) 99,93 %
28.04.2017 21:00 5,5 C 5,5 C 5,7 C 86 % 0 cb 1018,1 hPa 0,0 l/m 1,1 km/h (0 Bft) W 0,00 h 0,000 mm 0 W/m 3,4 C 5,5 C 4,3 km/h (1 Bft) 100,00 %
28.04.2017 22:00 5,4 C 5,3 C 5,4 C 88 % 0 cb 1018,5 hPa 0,0 l/m 1,9 km/h (1 Bft) W 0,00 h 0,000 mm 0 W/m 3,4 C 5,2 C 7,2 km/h (2 Bft) 99,93 %
28.04.2017 23:00 4,8 C 4,8 C 4,9 C 89 % 0 cb 1018,5 hPa 0,0 l/m 0,3 km/h (0 Bft) N 0,00 h 0,000 mm 0 W/m 3,1 C 4,8 C 1,9 km/h (1 Bft) 99,93 %
29.04.2017 00:00 3,8 C 3,8 C 3,9 C 91 % 0 cb 1018,7 hPa 0,0 l/m 0,0 km/h (0 Bft) N 0,00 h 0,000 mm 0 W/m 2,5 C 3,8 C 0,3 km/h (0 Bft) 99,78 %
29.04.2017 01:00 3,3 C 3,3 C 3,4 C 93 % 0 cb 1018,9 hPa 0,0 l/m 0,0 km/h (0 Bft) N 0,00 h 0,000 mm 0 W/m 2,3 C 3,3 C 0,0 km/h (0 Bft) 100,00 %
29.04.2017 02:00 2,9 C 2,9 C 3,0 C 93 % 0 cb 1019,0 hPa 0,0 l/m 0,0 km/h (0 Bft) N 0,00 h 0,000 mm 0 W/m 1,9 C 2,9 C 0,0 km/h (0 Bft) 99,71 %
29.04.2017 03:00 2,2 C 2,2 C 2,3 C 93 % 0 cb 1019,1 hPa 0,0 l/m 0,0 km/h (0 Bft) N 0,00 h 0,000 mm 0 W/m 1,2 C 2,2 C 0,0 km/h (0 Bft) 100,00 %
29.04.2017 04:00 1,8 C 1,7 C 1,8 C 94 % 0 cb 1019,2 hPa 0,0 l/m 0,0 km/h (0 Bft) N 0,00 h 0,000 mm 0 W/m 0,9 C 1,8 C 0,0 km/h (0 Bft) 100,00 %
29.04.2017 05:00 2,0 C 1,9 C 2,2 C 95 % 0 cb 1019,2 hPa 0,0 l/m 0,0 km/h (0 Bft) N 0,00 h 0,000 mm 0 W/m 1,3 C 2,0 C 0,0 km/h (0 Bft) 99,71 %
29.04.2017 06:00 1,3 C 1,3 C 1,4 C 95 % 0 cb 1019,5 hPa 0,0 l/m 0,0 km/h (0 Bft) N 0,00 h 0,000 mm 14 W/m 0,6 C 1,3 C 0,0 km/h (0 Bft) 100,00 %
29.04.2017 07:00 1,5 C 1,4 C 1,5 C 95 % 0 cb 1019,6 hPa 0,0 l/m 0,0 km/h (0 Bft) N 0,00 h 0,000 mm 89 W/m 0,8 C 1,5 C 0,0 km/h (0 Bft) 98,76 %
29.04.2017 08:00 2,9 C 2,6 C 2,9 C 96 % 0 cb 1019,8 hPa 0,0 l/m 0,0 km/h (0 Bft) N 0,33 h 0,025 mm 162 W/m 2,4 C 2,9 C 0,0 km/h (0 Bft) 99,93 %
29.04.2017 09:00 5,0 C 4,6 C 5,0 C 96 % 0 cb 1019,8 hPa 0,0 l/m 0,5 km/h (0 Bft) S-SO 1,00 h 0,051 mm 397 W/m 4,4 C 5,0 C 4,0 km/h (1 Bft) 100,00 %
29.04.2017 10:00 8,4 C 8,0 C 8,5 C 77 % 0 cb 1019,7 hPa 0,0 l/m 2,7 km/h (1 Bft) S 1,00 h 0,127 mm 500 W/m 4,6 C 8,4 C 7,2 km/h (2 Bft) 99,64 %
29.04.2017 11:00 8,9 C 8,7 C 8,9 C 65 % 0 cb 1019,7 hPa 0,2 l/m 2,1 km/h (1 Bft) N-NO 1,00 h 0,178 mm 362 W/m 2,6 C 8,9 C 6,7 km/h (2 Bft) 100,00 %
29.04.2017 12:00 10,3 C 10,1 C 10,4 C 56 % 0 cb 1019,4 hPa 0,0 l/m 3,5 km/h (1 Bft) SW 1,00 h 0,152 mm 607 W/m 1,9 C 10,3 C 8,6 km/h (2 Bft) 100,00 %
29.04.2017 13:00 11,3 C 11,0 C 11,3 C 53 % 0 cb 1019,0 hPa 0,0 l/m 3,7 km/h (1 Bft) S 1,00 h 0,229 mm 765 W/m 1,9 C 11,3 C 10,7 km/h (2 Bft) 99,93 %
29.04.2017 14:00 12,9 C 12,6 C 13,0 C 46 % 0 cb 1018,6 hPa 0,0 l/m 4,0 km/h (1 Bft) O-SO 1,00 h 0,356 mm 921 W/m 1,6 C 12,9 C 11,8 km/h (2 Bft) 100,00 %
29.04.2017 15:00 13,8 C 13,6 C 13,8 C 45 % 0 cb 1018,2 hPa 0,0 l/m 4,5 km/h (1 Bft) S-SW 1,00 h 0,457 mm 831 W/m 1,9 C 13,8 C 12,9 km/h (3 Bft) 100,00 %
29.04.2017 16:00 14,7 C 14,6 C 14,8 C 41 % 0 cb 1017,6 hPa 0,0 l/m 4,3 km/h (1 Bft) S 1,00 h 0,432 mm 645 W/m 1,4 C 14,7 C 13,4 km/h (3 Bft) 100,00 %
29.04.2017 17:00 14,6 C 14,4 C 14,8 C 39 % 0 cb 1017,1 hPa 0,0 l/m 4,0 km/h (1 Bft) S 1,00 h 0,356 mm 480 W/m 0,9 C 14,6 C 12,1 km/h (2 Bft) 100,00 %
29.04.2017 18:00 14,6 C 14,6 C 14,8 C 39 % 0 cb 1016,8 hPa 0,0 l/m 3,2 km/h (1 Bft) S 0,83 h 0,279 mm 274 W/m 0,7 C 14,6 C 9,1 km/h (2 Bft) 100,00 %
29.04.2017 19:00 13,4 C 13,4 C 13,7 C 42 % 0 cb 1016,5 hPa 0,0 l/m 2,9 km/h (1 Bft) O-SO 0,50 h 0,152 mm 143 W/m 0,9 C 13,4 C 9,7 km/h (2 Bft) 99,93 %
29.04.2017 20:00 11,6 C 11,6 C 12,0 C 47 % 0 cb 1016,6 hPa 0,0 l/m 0,5 km/h (0 Bft) O-SO 0,00 h 0,076 mm 15 W/m 0,6 C 11,6 C 3,7 km/h (1 Bft) 100,00 %
29.04.2017 21:00 9,2 C 9,2 C 9,5 C 53 % 0 cb 1016,6 hPa 0,0 l/m 0,5 km/h (0 Bft) O-SO 0,00 h 0,025 mm 0 W/m 0,0 C 9,2 C 2,4 km/h (1 Bft) 99,64 %
29.04.2017 22:00 8,3 C 8,3 C 8,4 C 56 % 0 cb 1016,7 hPa 0,0 l/m 1,9 km/h (1 Bft) O-NO 0,00 h 0,000 mm 0 W/m -0,0 C 8,3 C 6,4 km/h (2 Bft) 100,00 %
29.04.2017 23:00 8,6 C 8,5 C 8,6 C 57 % 0 cb 1016,5 hPa 0,0 l/m 3,7 km/h (1 Bft) O-NO 0,00 h 0,025 mm 0 W/m 0,6 C 8,5 C 12,4 km/h (3 Bft) 99,93 %
30.04.2017 00:00 8,0 C 8,0 C 8,1 C 57 % 0 cb 1016,3 hPa 0,0 l/m 2,1 km/h (1 Bft) O-NO 0,00 h 0,051 mm 0 W/m 0,1 C 8,0 C 9,9 km/h (2 Bft) 99,93 %
30.04.2017 01:00 6,6 C 6,6 C 6,9 C 61 % 0 cb 1016,1 hPa 0,0 l/m 3,7 km/h (1 Bft) N-NO 0,00 h 0,025 mm 0 W/m -0,4 C 6,4 C 9,1 km/h (2 Bft) 100,00 %
30.04.2017 02:00 5,8 C 5,8 C 5,9 C 63 % 0 cb 1015,9 hPa 0,0 l/m 4,3 km/h (1 Bft) N-NO 0,00 h 0,025 mm 0 W/m -0,7 C 5,4 C 8,6 km/h (2 Bft) 100,00 %
30.04.2017 03:00 5,2 C 5,2 C 5,3 C 65 % 0 cb 1015,5 hPa 0,0 l/m 5,9 km/h (2 Bft) N-NO 0,00 h 0,025 mm 0 W/m -0,8 C 4,0 C 12,1 km/h (2 Bft) 99,85 %
30.04.2017 04:00 4,5 C 4,5 C 4,6 C 69 % 0 cb 1015,4 hPa 0,0 l/m 5,1 km/h (1 Bft) N-NO 0,00 h 0,025 mm 0 W/m -0,7 C 3,5 C 10,8 km/h (2 Bft) 99,85 %
30.04.2017 05:00 3,8 C 3,8 C 3,9 C 72 % 0 cb 1015,3 hPa 0,0 l/m 3,7 km/h (1 Bft) N 0,00 h 0,025 mm 0 W/m -0,8 C 3,5 C 10,5 km/h (2 Bft) 97,81 %
30.04.2017 06:00 3,1 C 3,1 C 3,2 C 75 % 0 cb 1015,3 hPa 0,0 l/m 3,7 km/h (1 Bft) N 0,00 h 0,000 mm 14 W/m -0,9 C 2,8 C 9,9 km/h (2 Bft) 99,85 %
30.04.2017 07:00 4,1 C 3,8 C 4,1 C 74 % 0 cb 1015,2 hPa 0,0 l/m 5,1 km/h (1 Bft) N-NO 0,17 h 0,025 mm 123 W/m -0,1 C 3,2 C 12,1 km/h (2 Bft) 99,71 %
30.04.2017 08:00 7,8 C 7,1 C 7,8 C 64 % 0 cb 1014,7 hPa 0,0 l/m 5,1 km/h (1 Bft) O-NO 1,00 h 0,051 mm 314 W/m 1,3 C 7,3 C 13,7 km/h (3 Bft) 99,93 %
30.04.2017 09:00 10,8 C 10,4 C 10,8 C 55 % 0 cb 1014,3 hPa 0,0 l/m 5,1 km/h (1 Bft) O 1,00 h 0,152 mm 490 W/m 2,1 C 10,8 C 14,2 km/h (3 Bft) 100,00 %
30.04.2017 10:00 12,8 C 12,5 C 12,8 C 49 % 0 cb 1013,5 hPa 0,0 l/m 6,4 km/h (2 Bft) O 1,00 h 0,254 mm 629 W/m 2,3 C 12,8 C 18,5 km/h (3 Bft) 99,78 %
30.04.2017 11:00 14,5 C 14,3 C 14,5 C 43 % 0 cb 1012,6 hPa 0,0 l/m 8,9 km/h (2 Bft) O-NO 1,00 h 0,356 mm 743 W/m 2,0 C 14,5 C 22,0 km/h (4 Bft) 100,00 %
30.04.2017 12:00 15,8 C 15,6 C 15,9 C 37 % 0 cb 1011,8 hPa 0,0 l/m 8,0 km/h (2 Bft) O-NO 1,00 h 0,457 mm 814 W/m 1,2 C 15,8 C 20,4 km/h (4 Bft) 99,78 %
30.04.2017 13:00 16,9 C 16,7 C 16,9 C 35 % 0 cb 1010,9 hPa 0,0 l/m 7,0 km/h (2 Bft) O-NO 1,00 h 0,483 mm 836 W/m 1,4 C 16,9 C 19,3 km/h (3 Bft) 100,00 %
30.04.2017 14:00 17,3 C 17,1 C 17,4 C 34 % 0 cb 1009,9 hPa 0,0 l/m 8,6 km/h (2 Bft) O-NO 1,00 h 0,508 mm 827 W/m 1,5 C 17,3 C 22,8 km/h (4 Bft) 100,00 %
30.04.2017 15:00 18,2 C 18,0 C 18,3 C 34 % 0 cb 1008,9 hPa 0,0 l/m 8,9 km/h (2 Bft) O-NO 1,00 h 0,508 mm 773 W/m 1,9 C 18,2 C 23,6 km/h (4 Bft) 100,00 %
30.04.2017 16:00 18,8 C 18,7 C 18,9 C 31 % 0 cb 1008,2 hPa 0,0 l/m 6,9 km/h (2 Bft) O 1,00 h 0,483 mm 635 W/m 1,4 C 18,8 C 21,7 km/h (4 Bft) 99,71 %
30.04.2017 17:00 19,0 C 18,9 C 19,1 C 29 % 0 cb 1007,3 hPa 0,0 l/m 7,2 km/h (2 Bft) O 1,00 h 0,406 mm 476 W/m 0,7 C 19,0 C 19,3 km/h (3 Bft) 100,00 %
30.04.2017 18:00 18,6 C 18,6 C 18,8 C 30 % 0 cb 1006,6 hPa 0,0 l/m 6,1 km/h (2 Bft) O 0,83 h 0,330 mm 279 W/m 0,5 C 18,6 C 19,8 km/h (4 Bft) 100,00 %
30.04.2017 19:00 17,1 C 17,1 C 17,4 C 33 % 0 cb 1006,3 hPa 0,0 l/m 5,6 km/h (1 Bft) O 0,33 h 0,203 mm 119 W/m 0,5 C 17,1 C 16,6 km/h (3 Bft) 100,00 %
30.04.2017 20:00 15,3 C 15,3 C 15,7 C 37 % 0 cb 1006,4 hPa 0,0 l/m 2,4 km/h (1 Bft) O-NO 0,00 h 0,102 mm 18 W/m 0,6 C 15,3 C 10,2 km/h (2 Bft) 99,78 %
30.04.2017 21:00 13,7 C 13,7 C 13,8 C 43 % 0 cb 1006,6 hPa 0,0 l/m 2,4 km/h (1 Bft) O-NO 0,00 h 0,025 mm 0 W/m 1,3 C 13,7 C 10,5 km/h (2 Bft) 99,78 %
30.04.2017 22:00 13,4 C 13,4 C 13,5 C 43 % 0 cb 1006,2 hPa 0,0 l/m 3,5 km/h (1 Bft) O 0,00 h 0,051 mm 0 W/m 1,2 C 13,4 C 14,2 km/h (3 Bft) 99,78 %
30.04.2017 23:00 12,8 C 12,8 C 12,9 C 46 % 0 cb 1006,0 hPa 0,0 l/m 2,9 km/h (1 Bft) O-NO 0,00 h 0,051 mm 0 W/m 1,6 C 12,8 C 12,1 km/h (2 Bft) 99,93 %
Min-Datum _ 28.04.17 28.04.17 28.04.17 30.04.17 24.04.17 30.04.17 - 24.04.17 - - - - 25.04.17 28.04.17 24.04.17 24.04.17
_ Min-Zeit 06:40 07:00 06:50 17:00 00:00 23:00 - 03:20 - - - - 17:50 06:40 03:20 07:30
Minimum _ -0,8 C -0,9 C -0,8 C 29 % 0 cb 1005,9 hPa - 0,0 km/h (0 Bft) - - - - -3,8 C -0,8 C 0,0 km/h (0 Bft) 34,21 %
Max-Datum _ 30.04.17 30.04.17 30.04.17 29.04.17 24.04.17 24.04.17 27.04.17 30.04.17 - 24.04.17 30.04.17 28.04.17 29.04.17 30.04.17 30.04.17 24.04.17
_ Max-Zeit 17:00 17:10 17:00 08:50 00:00 00:00 14:30 15:10 - 07:50 14:00 13:40 10:10 17:00 15:50 00:00
Maximum _ 19,2 C 19,1 C 19,2 C 97 % 0 cb 1025,1 hPa 0,2 l/m 11,3 km/h
O-NO (2 Bft)
- 0,17 h 0,508 mm 1114 W/m 5,7 C 19,2 C 29,0 km/h
O-NO (5 Bft)
100,00 %
Durchschnitt _ 7,6 C 7,5 C 7,7 C 62 % 0 cb 1014,6 hPa #0,6 l/m 3,3 km/h (1 Bft) N-NO #69:50 h #18,877 mm 338 W/m 0,1 C 7,4 C 9,5 km/h (2 Bft) 99,53 %
Wetterstation Gdesweiler